Pagrindinis puslapis
METAR-TAF:

METAR-TAF

Oro uostai :

Kobė, Japonija

platuma: 34-37-58N, ilguma: 135-13-26E, Aukštis: 7 m

Dabartinis oras

Ataskaita buvo paskelbta 2 valandos ir 14 minutes, ne 12:00 UTC
Vėjas 3 kt iš Šiaurės/Šiaurės Rytų
Temperatūra 9°C
Drėgmė 61%
Slėgis 1026 hPa
Matomumas 10 km arba daugiau
nėra debesų žemiau 1500 m ir nėra kamuolinių lietaus debesų

METAR: RJBE 131200Z 02003KT CAVOK 09/02 Q1026

Laikas: 23:14 (14:14 UTC)


TAF: trūkstamas

Orai ataskaitas ir orų prognozės (METAR, TAF).

turimą stotys yra geltonos ir raudonos taškus žemėlapyje.

Perkelti pele per norėdami pamatyti stoties vardą.

Tada spustelėkite, norėdami matyti oro stebėjimo ir prognozės.

Norėdami pakeisti žemėlapį: spustelėkite ant žalios mygtukų su juodo kryžiaus žemyn,; žalią mygtuką su brūkšneliu, jei norite nutolinti; arba žalių rodyklių gretimoms žemėlapius.


METAR-TAF: